Time;durP1;ratioP1;P1;durP2;ratioP2;P2;SDS_P1;SDS_P2;PMS_P1;PMS_P2;Temp;Humidity;BMP_temperature;BMP_pressure;BME280_temperature;BME280_humidity;BME280_pressure;Samples;Min_cycle;Max_cycle;Signal;HPM_P1;HPM_P2
2022/07/10 00:01:59;;;;;;;9.48;2.97;;;13.70;57.40;;;;;;4982173;28;20202;-45
2022/07/10 00:04:30;;;;;;;6.57;3.00;;;13.70;57.00;;;;;;4956628;28;20667;-46
2022/07/10 00:07:03;;;;;;;12.18;3.35;;;13.80;57.10;;;;;;4992626;28;20201;-45
2022/07/10 00:09:34;;;;;;;8.52;2.97;;;13.70;56.90;;;;;;4992235;28;20292;-44
2022/07/10 00:12:05;;;;;;;11.15;3.17;;;13.80;56.90;;;;;;4992741;28;20236;-44
2022/07/10 00:14:42;;;;;;;8.63;3.30;;;13.80;56.80;;;;;;4991625;28;20606;-44
2022/07/10 00:17:13;;;;;;;12.23;2.95;;;13.80;56.50;;;;;;4980972;28;20281;-46
2022/07/10 00:19:44;;;;;;;9.57;3.35;;;13.80;57.00;;;;;;4960525;28;20229;-46
2022/07/10 00:22:16;;;;;;;14.00;3.00;;;13.80;56.50;;;;;;4992188;28;20213;-47
2022/07/10 00:24:47;;;;;;;10.32;3.33;;;13.80;56.20;;;;;;4990798;28;20674;-44
2022/07/10 00:27:18;;;;;;;7.78;2.90;;;13.90;57.00;;;;;;4991735;28;20205;-45
2022/07/10 00:29:49;;;;;;;13.13;4.15;;;13.90;58.40;;;;;;4992346;28;20901;-51
2022/07/10 00:32:19;;;;;;;13.55;4.07;;;13.90;60.10;;;;;;4990982;28;20700;-45
2022/07/10 00:34:50;;;;;;;15.02;4.50;;;14.00;58.00;;;;;;4986326;28;20204;-45
2022/07/10 00:37:23;;;;;;;8.68;3.95;;;14.00;59.90;;;;;;4991612;28;20197;-44
2022/07/10 00:39:53;;;;;;;13.63;3.95;;;14.10;58.80;;;;;;4981770;28;20202;-44
2022/07/10 00:42:24;;;;;;;13.80;4.07;;;14.10;57.50;;;;;;4991480;28;20221;-44
2022/07/10 00:44:55;;;;;;;8.70;3.53;;;14.10;56.90;;;;;;4990735;28;20654;-43
2022/07/10 00:47:25;;;;;;;11.90;3.90;;;14.10;56.60;;;;;;4976649;28;20206;-46
2022/07/10 00:49:56;;;;;;;10.57;3.20;;;14.10;56.40;;;;;;4958632;28;20598;-45
2022/07/10 00:52:29;;;;;;;8.20;3.35;;;14.10;56.30;;;;;;4992174;28;20239;-45
2022/07/10 00:55:00;;;;;;;8.23;3.33;;;14.10;56.70;;;;;;4991610;28;20541;-44
2022/07/10 00:57:31;;;;;;;9.52;3.72;;;14.20;56.00;;;;;;4991793;28;20204;-47
2022/07/10 01:00:02;;;;;;;7.60;2.67;;;14.10;55.60;;;;;;4990721;28;20190;-45
2022/07/10 01:02:33;;;;;;;10.60;3.40;;;14.10;55.10;;;;;;4991714;28;20217;-45
2022/07/10 01:05:04;;;;;;;10.80;3.42;;;14.10;54.80;;;;;;4991263;28;20202;-46
2022/07/10 01:07:36;;;;;;;10.98;3.75;;;14.00;54.60;;;;;;4991717;28;20197;-44
2022/07/10 01:10:08;;;;;;;6.65;3.03;;;14.00;54.40;;;;;;4990493;28;20216;-45
2022/07/10 01:12:39;;;;;;;8.70;3.13;;;14.00;54.30;;;;;;4991531;28;20233;-43
2022/07/10 01:15:10;;;;;;;15.80;7.00;;;14.00;54.30;;;;;;4992210;28;20194;-44
2022/07/10 01:17:41;;;;;;;17.38;7.88;;;14.00;54.20;;;;;;4973312;28;20770;-45
2022/07/10 01:20:13;;;;;;;14.32;6.30;;;13.90;54.10;;;;;;4961308;28;20189;-45
2022/07/10 01:22:46;;;;;;;9.32;4.50;;;13.90;54.20;;;;;;4990509;28;20213;-47
2022/07/10 01:25:17;;;;;;;11.15;4.10;;;13.90;55.70;;;;;;4991331;28;20575;-46
2022/07/10 01:27:48;;;;;;;12.80;4.15;;;13.90;55.10;;;;;;4991152;28;20213;-46
2022/07/10 01:30:19;;;;;;;13.35;4.75;;;13.90;54.60;;;;;;4990468;28;20193;-44
2022/07/10 01:32:49;;;;;;;10.77;4.40;;;13.90;54.30;;;;;;4994425;28;20229;-49
2022/07/10 01:35:20;;;;;;;9.43;3.38;;;13.90;54.10;;;;;;4995575;28;20190;-44
2022/07/10 01:37:53;;;;;;;7.70;3.45;;;13.90;54.30;;;;;;4994923;28;20205;-46
2022/07/10 01:40:23;;;;;;;10.93;3.63;;;13.90;55.50;;;;;;4975099;28;20244;-44
2022/07/10 01:42:54;;;;;;;6.65;2.92;;;13.90;56.20;;;;;;4956933;28;20226;-44
2022/07/10 01:45:25;;;;;;;10.35;3.42;;;14.00;56.20;;;;;;4963742;28;20190;-47
2022/07/10 01:47:56;;;;;;;8.65;2.85;;;14.00;56.20;;;;;;4973408;28;20678;-47
2022/07/10 01:50:27;;;;;;;5.95;2.42;;;14.00;55.80;;;;;;4963479;28;20201;-45
2022/07/10 01:53:00;;;;;;;8.73;2.67;;;14.00;55.80;;;;;;4995330;28;20240;-44
2022/07/10 01:55:30;;;;;;;7.90;3.13;;;14.00;56.20;;;;;;4994813;28;20197;-45
2022/07/10 01:58:01;;;;;;;11.45;3.97;;;14.10;56.10;;;;;;4995080;28;20236;-47
2022/07/10 02:00:32;;;;;;;9.27;3.38;;;14.10;55.40;;;;;;4994723;28;20656;-48
2022/07/10 02:05:49;;;;;;;7.15;2.65;;;14.20;57.20;;;;;;4994592;28;20308;-44
2022/07/10 02:08:22;;;;;;;7.13;2.97;;;14.20;56.90;;;;;;4994947;28;20201;-45
2022/07/10 02:10:53;;;;;;;7.25;2.85;;;14.30;56.20;;;;;;4994238;28;20194;-45
2022/07/10 02:13:27;;;;;;;9.32;3.30;;;14.30;56.00;;;;;;4994660;28;20705;-45
2022/07/10 02:15:58;;;;;;;9.98;3.47;;;14.40;55.80;;;;;;4989721;28;20197;-46
2022/07/10 02:18:29;;;;;;;8.98;2.58;;;14.40;54.90;;;;;;4962823;28;20202;-47
2022/07/10 02:21:00;;;;;;;10.75;3.30;;;14.40;54.80;;;;;;4968623;28;20204;-45
2022/07/10 02:23:32;;;;;;;8.68;2.92;;;14.40;55.00;;;;;;4977874;28;20215;-46
2022/07/10 02:26:04;;;;;;;8.43;3.13;;;14.50;54.80;;;;;;4968489;28;20190;-45
2022/07/10 02:28:35;;;;;;;5.63;2.17;;;14.50;55.60;;;;;;4991393;28;20205;-44
2022/07/10 02:31:05;;;;;;;7.60;2.50;;;14.50;55.00;;;;;;4994403;28;20198;-45
2022/07/10 02:33:36;;;;;;;6.85;2.90;;;14.60;54.50;;;;;;4961957;28;20694;-47
2022/07/10 02:36:07;;;;;;;8.77;3.20;;;14.60;54.30;;;;;;4981568;28;20712;-44
2022/07/10 02:38:40;;;;;;;7.43;3.00;;;14.70;53.70;;;;;;4991531;28;20211;-45
2022/07/10 02:41:10;;;;;;;8.32;2.90;;;14.70;54.30;;;;;;4980326;28;20196;-46
2022/07/10 02:43:41;;;;;;;11.27;3.58;;;14.70;53.90;;;;;;4993228;28;20225;-45
2022/07/10 02:46:12;;;;;;;11.15;3.58;;;14.80;53.30;;;;;;4992884;28;20200;-45
2022/07/10 02:48:42;;;;;;;11.68;3.97;;;14.70;52.90;;;;;;4971757;28;20206;-44
2022/07/10 02:51:13;;;;;;;10.07;3.35;;;14.80;52.90;;;;;;4980845;28;20765;-46
2022/07/10 02:53:46;;;;;;;8.23;3.55;;;14.80;53.00;;;;;;4963907;28;20258;-46
2022/07/10 02:56:16;;;;;;;6.72;3.03;;;14.80;52.90;;;;;;4980486;28;20194;-47
2022/07/10 02:58:47;;;;;;;10.95;3.15;;;14.80;53.30;;;;;;4994305;28;20201;-45
2022/07/10 03:01:18;;;;;;;8.02;3.22;;;14.90;53.40;;;;;;4993507;28;20276;-45
2022/07/10 03:03:49;;;;;;;6.95;2.45;;;14.90;53.30;;;;;;4993305;28;20222;-46
2022/07/10 03:06:19;;;;;;;6.78;2.30;;;14.90;52.50;;;;;;4993010;28;20709;-47
2022/07/10 03:08:52;;;;;;;7.82;2.75;;;14.90;51.30;;;;;;4993444;28;20201;-46
2022/07/10 03:11:22;;;;;;;7.05;2.60;;;14.90;51.30;;;;;;4981309;28;20201;-47
2022/07/10 03:13:53;;;;;;;5.15;2.47;;;14.90;52.70;;;;;;4993348;28;20244;-48
2022/07/10 03:16:24;;;;;;;5.72;2.50;;;14.90;53.30;;;;;;4993862;28;20201;-49
2022/07/10 03:18:54;;;;;;;6.38;2.85;;;14.90;53.40;;;;;;4955590;28;20828;-46
2022/07/10 03:21:25;;;;;;;5.53;2.28;;;15.00;54.50;;;;;;4967526;28;20213;-46
2022/07/10 03:23:58;;;;;;;5.35;2.35;;;15.10;55.10;;;;;;4993500;28;20709;-47
2022/07/10 03:26:29;;;;;;;5.40;2.33;;;15.10;55.10;;;;;;4993916;28;20194;-46
2022/07/10 03:28:59;;;;;;;7.28;2.70;;;15.20;55.50;;;;;;4993292;28;20198;-44
2022/07/10 03:31:30;;;;;;;5.45;2.53;;;15.20;55.70;;;;;;4992748;28;20202;-46
2022/07/10 03:34:02;;;;;;;7.97;3.17;;;15.30;55.90;;;;;;4993477;28;20229;-49
2022/07/10 03:36:32;;;;;;;7.68;3.05;;;15.30;56.10;;;;;;4992987;28;20194;-45
2022/07/10 03:39:05;;;;;;;4.30;2.47;;;15.30;56.20;;;;;;4986152;28;20190;-46
2022/07/10 03:41:35;;;;;;;5.50;2.45;;;15.40;56.20;;;;;;4967588;28;20193;-46
2022/07/10 03:44:07;;;;;;;9.27;2.60;;;15.40;56.20;;;;;;4993379;28;20252;-47
2022/07/10 03:46:38;;;;;;;9.73;3.33;;;15.40;56.20;;;;;;4990657;28;20190;-46
2022/07/10 03:49:09;;;;;;;6.40;2.75;;;15.40;56.30;;;;;;4954387;28;20199;-46
2022/07/10 03:51:39;;;;;;;4.65;2.53;;;15.50;56.50;;;;;;4967609;28;20189;-47
2022/07/10 03:54:12;;;;;;;5.72;2.72;;;15.50;56.60;;;;;;4992286;28;20233;-47
2022/07/10 03:59:29;;;;;;;5.97;2.58;;;15.50;56.70;;;;;;4992277;28;20544;-47
2022/07/10 04:02:00;;;;;;;6.47;3.00;;;15.50;56.80;;;;;;4992599;28;20194;-46
2022/07/10 04:04:31;;;;;;;6.18;2.42;;;15.40;56.90;;;;;;4992453;28;20579;-45
2022/07/10 04:07:01;;;;;;;4.65;2.88;;;15.50;57.10;;;;;;4992251;28;20274;-45
2022/07/10 04:09:34;;;;;;;6.57;2.47;;;15.50;57.10;;;;;;4992032;28;20205;-48
2022/07/10 04:12:05;;;;;;;5.63;2.50;;;15.50;57.00;;;;;;4973295;28;20218;-47
2022/07/10 04:14:35;;;;;;;4.40;2.38;;;15.50;57.10;;;;;;4954695;28;20562;-47
2022/07/10 04:17:06;;;;;;;4.57;2.55;;;15.50;57.10;;;;;;4974086;28;20213;-47
2022/07/10 04:19:37;;;;;;;6.00;3.05;;;15.50;57.10;;;;;;4973044;28;20198;-46
2022/07/10 04:22:09;;;;;;;5.15;2.60;;;15.50;57.10;;;;;;4982001;28;20567;-47
2022/07/10 04:24:42;;;;;;;5.78;2.33;;;15.50;57.00;;;;;;4971289;28;20206;-47
2022/07/10 04:27:13;;;;;;;6.35;2.58;;;15.50;57.10;;;;;;4985925;28;20194;-49
2022/07/10 04:29:43;;;;;;;7.75;2.80;;;15.50;57.20;;;;;;4951969;28;20242;-48
2022/07/10 04:32:14;;;;;;;4.70;2.75;;;15.50;57.40;;;;;;4959332;28;20211;-46
2022/07/10 04:34:45;;;;;;;4.50;2.28;;;15.50;57.50;;;;;;4953223;28;20203;-46
2022/07/10 04:37:16;;;;;;;6.82;3.15;;;15.50;57.70;;;;;;4983879;28;20208;-46
2022/07/10 04:39:48;;;;;;;6.00;2.67;;;15.50;57.70;;;;;;4991593;28;20671;-48
2022/07/10 04:42:19;;;;;;;5.80;3.00;;;15.50;57.90;;;;;;4980945;28;20740;-50
2022/07/10 04:44:49;;;;;;;7.55;3.13;;;15.50;57.90;;;;;;4972296;28;20224;-49
2022/07/10 04:47:20;;;;;;;4.90;2.75;;;15.50;57.80;;;;;;4973653;28;20210;-46
2022/07/10 04:49:51;;;;;;;5.57;2.90;;;15.40;57.70;;;;;;4952880;28;20209;-46
2022/07/10 04:52:22;;;;;;;5.93;2.70;;;15.40;57.70;;;;;;4982588;28;20213;-46
2022/07/10 04:54:54;;;;;;;3.90;2.78;;;15.40;57.80;;;;;;4991507;28;20209;-49
2022/07/10 04:57:25;;;;;;;6.32;3.00;;;15.40;57.80;;;;;;4991171;28;20193;-48
2022/07/10 04:59:56;;;;;;;5.70;3.13;;;15.40;57.80;;;;;;4991441;28;20618;-46
2022/07/10 05:02:27;;;;;;;5.25;2.63;;;15.30;57.90;;;;;;4990598;28;20217;-47
2022/07/10 05:04:58;;;;;;;6.40;2.78;;;15.30;57.90;;;;;;4991282;28;20204;-47
2022/07/10 05:07:28;;;;;;;6.53;3.00;;;15.30;58.10;;;;;;4990799;28;20205;-47
2022/07/10 05:10:01;;;;;;;6.32;2.55;;;15.30;58.20;;;;;;4990411;28;20232;-48
2022/07/10 05:12:32;;;;;;;5.32;3.00;;;15.30;58.30;;;;;;4982697;28;20704;-47
2022/07/10 05:15:02;;;;;;;6.20;3.20;;;15.30;58.30;;;;;;4952320;28;20632;-46
2022/07/10 05:17:33;;;;;;;5.75;2.65;;;15.30;58.20;;;;;;4966685;28;20203;-46
2022/07/10 05:20:04;;;;;;;5.68;2.83;;;15.20;58.30;;;;;;4971366;28;20249;-48
2022/07/10 05:22:35;;;;;;;5.95;3.30;;;15.20;58.20;;;;;;4986481;28;20685;-46
2022/07/10 05:25:08;;;;;;;5.65;3.33;;;15.20;58.30;;;;;;4991185;28;20201;-46
2022/07/10 05:27:39;;;;;;;4.63;3.10;;;15.20;58.30;;;;;;4991473;28;20194;-46
2022/07/10 05:30:10;;;;;;;6.35;3.10;;;15.10;58.30;;;;;;4991390;28;20194;-47
2022/07/10 05:32:47;;;;;;;3.47;2.67;;;15.10;58.50;;;;;;4990573;28;20232;-46
2022/07/10 05:35:18;;;;;;;5.43;3.28;;;15.10;59.20;;;;;;4971006;28;20653;-46
2022/07/10 05:37:49;;;;;;;4.85;2.72;;;15.10;58.60;;;;;;4983225;28;20197;-46
2022/07/10 05:40:21;;;;;;;4.40;2.92;;;15.10;58.60;;;;;;4952865;28;20245;-46
2022/07/10 05:42:52;;;;;;;6.28;3.53;;;15.00;58.60;;;;;;4984643;28;20583;-46
2022/07/10 05:45:23;;;;;;;5.15;3.33;;;15.00;58.70;;;;;;4991849;28;20204;-47
2022/07/10 05:47:54;;;;;;;6.68;3.55;;;15.00;58.80;;;;;;4969428;28;20195;-46
2022/07/10 05:50:24;;;;;;;4.03;2.67;;;15.00;58.90;;;;;;4952993;28;20210;-46
2022/07/10 05:52:55;;;;;;;4.82;3.40;;;15.00;58.90;;;;;;4984824;28;20217;-47
2022/07/10 05:55:28;;;;;;;4.85;3.15;;;15.00;59.00;;;;;;4990315;28;20205;-47
2022/07/10 05:57:59;;;;;;;5.93;3.65;;;14.90;58.90;;;;;;4991288;28;20190;-47
2022/07/10 06:00:29;;;;;;;4.72;2.83;;;14.90;59.00;;;;;;4990965;28;20193;-46
2022/07/10 06:03:03;;;;;;;6.93;3.38;;;14.80;59.00;;;;;;4991162;28;20217;-46
2022/07/10 06:05:34;;;;;;;5.57;2.95;;;14.80;58.90;;;;;;4991188;28;20205;-45
2022/07/10 06:08:04;;;;;;;4.10;2.70;;;14.80;58.90;;;;;;4991740;28;20194;-46
2022/07/10 06:10:37;;;;;;;4.45;3.17;;;14.80;58.90;;;;;;4990797;28;20212;-46
2022/07/10 06:13:08;;;;;;;5.70;3.50;;;14.80;58.90;;;;;;4991212;28;20244;-46
2022/07/10 06:15:38;;;;;;;4.22;3.03;;;14.80;58.90;;;;;;4991278;28;20205;-47
2022/07/10 06:18:09;;;;;;;4.35;2.90;;;14.80;59.00;;;;;;4971039;28;20205;-46
2022/07/10 06:20:40;;;;;;;4.53;3.13;;;14.70;59.00;;;;;;4975644;28;20565;-46
2022/07/10 06:23:10;;;;;;;4.20;3.55;;;14.70;59.10;;;;;;4991873;28;20218;-46
2022/07/10 06:25:43;;;;;;;5.25;3.20;;;14.70;59.10;;;;;;4988354;28;20213;-47
2022/07/10 06:28:14;;;;;;;4.00;2.92;;;14.60;59.10;;;;;;4991860;28;20229;-47
2022/07/10 06:30:45;;;;;;;4.60;3.40;;;14.60;59.10;;;;;;4994799;28;20289;-46
2022/07/10 06:33:16;;;;;;;5.63;3.05;;;14.60;59.20;;;;;;4993295;28;20221;-47
2022/07/10 06:35:47;;;;;;;5.13;3.10;;;14.60;59.20;;;;;;4994132;28;20248;-46
2022/07/10 06:38:18;;;;;;;4.22;3.20;;;14.50;59.00;;;;;;4966495;28;20195;-47
2022/07/10 06:40:52;;;;;;;4.05;3.17;;;14.50;59.00;;;;;;4955766;28;20210;-45
2022/07/10 06:43:23;;;;;;;4.72;2.97;;;14.50;59.00;;;;;;4990030;28;20232;-46
2022/07/10 06:45:53;;;;;;;5.28;2.83;;;14.50;59.10;;;;;;4994011;28;20571;-47
2022/07/10 06:48:23;;;;;;;5.47;3.03;;;14.50;59.10;;;;;;4964341;28;20199;-46
2022/07/10 06:50:54;;;;;;;4.40;3.00;;;14.50;59.10;;;;;;4955593;28;20203;-46
2022/07/10 06:53:26;;;;;;;4.28;3.20;;;14.50;59.20;;;;;;4989768;28;20708;-46
2022/07/10 06:55:59;;;;;;;4.30;3.00;;;14.40;59.20;;;;;;4993819;28;20202;-46
2022/07/10 06:58:30;;;;;;;4.53;2.90;;;14.40;59.20;;;;;;4994121;28;20203;-45
2022/07/10 07:01:01;;;;;;;3.97;3.03;;;14.40;59.30;;;;;;4993344;28;20205;-47
2022/07/10 07:03:31;;;;;;;4.95;2.80;;;14.30;59.20;;;;;;4993793;28;20213;-47
2022/07/10 07:06:02;;;;;;;4.63;3.00;;;14.30;59.20;;;;;;4993482;28;20216;-47
2022/07/10 07:08:35;;;;;;;3.63;2.80;;;14.30;59.30;;;;;;4993595;28;20193;-47
2022/07/10 07:11:07;;;;;;;4.97;3.28;;;14.30;59.20;;;;;;4994144;28;20205;-45
2022/07/10 07:13:38;;;;;;;4.90;3.38;;;14.30;59.20;;;;;;4990060;28;20724;-47
2022/07/10 07:16:10;;;;;;;4.32;3.38;;;14.30;59.10;;;;;;4956434;28;20195;-46
2022/07/10 07:18:47;;;;;;;4.07;3.22;;;14.20;59.20;;;;;;4964899;28;20198;-47
2022/07/10 07:24:05;;;;;;;4.93;2.80;;;14.20;59.20;;;;;;4971547;28;20216;-45
2022/07/10 07:26:37;;;;;;;5.05;3.00;;;14.20;59.30;;;;;;4974744;28;20195;-46
2022/07/10 07:29:08;;;;;;;4.55;2.88;;;14.10;59.30;;;;;;4973121;28;20615;-45
2022/07/10 07:31:39;;;;;;;4.65;2.40;;;14.10;59.30;;;;;;4974559;28;20202;-46
2022/07/10 07:34:09;;;;;;;3.88;2.83;;;14.10;60.00;;;;;;4972622;28;20323;-46
2022/07/10 07:36:40;;;;;;;3.17;2.53;;;14.10;59.40;;;;;;4973081;28;20213;-46
2022/07/10 07:39:11;;;;;;;5.10;2.95;;;14.00;59.40;;;;;;4983478;28;20659;-46
2022/07/10 07:41:44;;;;;;;4.20;2.88;;;14.00;59.40;;;;;;4973335;28;20202;-45
2022/07/10 07:44:17;;;;;;;5.18;2.92;;;14.00;59.40;;;;;;4992778;28;20197;-46
2022/07/10 07:46:48;;;;;;;5.43;3.00;;;14.00;59.30;;;;;;4971995;28;20734;-46
2022/07/10 07:49:18;;;;;;;4.43;2.88;;;14.00;59.30;;;;;;4982733;28;20202;-47
2022/07/10 07:51:50;;;;;;;4.20;2.72;;;14.00;59.30;;;;;;4982588;28;20673;-45
2022/07/10 07:54:20;;;;;;;6.05;3.15;;;13.90;59.30;;;;;;4972723;28;20237;-45
2022/07/10 07:56:53;;;;;;;3.33;2.75;;;13.90;60.00;;;;;;4973987;28;20655;-45
2022/07/10 07:59:24;;;;;;;4.28;2.75;;;13.90;59.40;;;;;;4972866;28;20223;-48
2022/07/10 08:01:54;;;;;;;4.53;3.13;;;13.90;59.40;;;;;;4972250;28;20224;-47
2022/07/10 08:04:25;;;;;;;5.47;3.10;;;13.90;59.40;;;;;;4971831;28;20205;-46
2022/07/10 08:06:56;;;;;;;4.72;2.72;;;13.80;59.50;;;;;;4972693;28;20643;-45
2022/07/10 08:09:26;;;;;;;4.40;2.90;;;13.80;59.50;;;;;;4972951;28;20213;-46
2022/07/10 08:11:59;;;;;;;5.40;3.22;;;13.80;59.50;;;;;;4973123;28;20198;-46
2022/07/10 08:14:30;;;;;;;4.18;2.47;;;13.80;59.40;;;;;;4973290;28;20717;-46
2022/07/10 08:17:00;;;;;;;3.10;2.40;;;13.80;59.40;;;;;;4973090;28;20194;-47
2022/07/10 08:19:31;;;;;;;4.70;2.92;;;13.70;59.30;;;;;;4973076;28;20203;-46
2022/07/10 08:22:02;;;;;;;3.33;2.58;;;13.70;59.30;;;;;;4973478;28;20204;-45
2022/07/10 08:24:33;;;;;;;3.50;2.70;;;13.70;59.40;;;;;;4972665;28;20198;-46
2022/07/10 08:27:06;;;;;;;5.90;3.00;;;13.70;59.30;;;;;;4972443;28;20301;-45
2022/07/10 08:29:36;;;;;;;4.82;2.58;;;13.70;59.40;;;;;;4973115;28;20289;-45
2022/07/10 08:32:09;;;;;;;4.93;3.05;;;13.60;59.40;;;;;;4974357;28;20213;-45
2022/07/10 08:34:40;;;;;;;3.67;2.30;;;13.60;59.40;;;;;;4966342;28;20879;-46
2022/07/10 08:37:10;;;;;;;4.28;2.58;;;13.60;59.40;;;;;;4970966;28;20206;-46
2022/07/10 08:39:41;;;;;;;5.40;2.90;;;13.60;59.40;;;;;;4972508;28;20205;-45
2022/07/10 08:42:14;;;;;;;3.50;2.70;;;13.60;59.50;;;;;;4972420;28;20273;-45
2022/07/10 08:44:45;;;;;;;4.18;2.65;;;13.50;59.40;;;;;;4972258;28;20202;-46
2022/07/10 08:47:16;;;;;;;3.85;2.10;;;13.50;59.40;;;;;;4966283;28;20206;-45
2022/07/10 08:49:50;;;;;;;4.07;2.67;;;13.50;59.40;;;;;;4954397;28;20199;-46
2022/07/10 08:52:29;;;;;;;3.83;2.50;;;13.50;59.30;;;;;;4973019;28;20233;-46
2022/07/10 08:55:00;;;;;;;3.28;2.70;;;13.50;59.40;;;;;;4965228;28;20316;-45
2022/07/10 08:57:33;;;;;;;3.58;2.70;;;13.50;59.30;;;;;;4970967;28;20203;-46
2022/07/10 09:00:04;;;;;;;3.47;2.50;;;13.50;59.30;;;;;;4953636;28;20191;-47
2022/07/10 09:02:35;;;;;;;5.45;2.88;;;13.50;59.30;;;;;;4971520;28;20221;-45
2022/07/10 09:05:08;;;;;;;3.92;2.55;;;13.50;59.30;;;;;;4974397;28;20210;-46
2022/07/10 09:07:43;;;;;;;4.20;2.95;;;13.50;59.40;;;;;;4971947;28;20202;-46
2022/07/10 09:10:15;;;;;;;5.60;3.00;;;13.50;60.00;;;;;;4983250;28;20252;-45
2022/07/10 09:12:58;;;;;;;4.45;2.78;;;13.50;59.40;;;;;;4971429;28;20228;-46
2022/07/10 09:15:31;;;;;;;3.72;2.53;;;13.40;59.40;;;;;;4991088;28;20225;-46
2022/07/10 09:18:10;;;;;;;4.55;2.70;;;13.40;59.40;;;;;;4962222;28;20277;-46
2022/07/10 09:20:43;;;;;;;5.28;2.70;;;13.40;59.40;;;;;;4975573;28;20241;-46
2022/07/10 09:23:20;;;;;;;4.35;2.70;;;13.40;59.40;;;;;;4971741;28;20213;-46
2022/07/10 09:25:52;;;;;;;5.15;2.80;;;13.40;59.30;;;;;;4973451;28;20203;-45
2022/07/10 09:28:25;;;;;;;5.45;2.60;;;13.40;59.30;;;;;;4974882;28;20201;-47
2022/07/10 09:30:56;;;;;;;3.42;2.70;;;13.30;59.20;;;;;;4983502;28;20532;-45
2022/07/10 09:33:29;;;;;;;3.85;2.90;;;13.40;59.30;;;;;;4972573;28;20209;-44
2022/07/10 09:36:08;;;;;;;4.68;2.80;;;13.30;59.30;;;;;;4972416;28;20206;-47
2022/07/10 09:39:00;;;;;;;5.88;3.00;;;13.30;59.30;;;;;;4976810;28;20197;-47
2022/07/10 09:41:32;;;;;;;3.80;2.90;;;13.30;59.40;;;;;;4972902;28;20194;-47
2022/07/10 09:44:07;;;;;;;4.18;2.72;;;13.30;59.40;;;;;;4970296;28;20806;-47
2022/07/10 09:46:40;;;;;;;5.00;2.67;;;13.30;59.40;;;;;;4970308;28;20194;-44
2022/07/10 09:49:12;;;;;;;4.05;2.60;;;13.30;59.40;;;;;;4974283;28;20221;-44
2022/07/10 09:51:43;;;;;;;4.32;2.88;;;13.30;59.40;;;;;;4971193;28;20198;-47
2022/07/10 09:54:14;;;;;;;3.97;2.75;;;13.30;59.40;;;;;;4979939;28;20225;-45
2022/07/10 09:56:47;;;;;;;4.45;3.25;;;13.30;59.40;;;;;;4975024;28;20197;-45
2022/07/10 09:59:20;;;;;;;4.07;2.95;;;13.20;59.40;;;;;;4983997;28;20206;-45
2022/07/10 10:01:52;;;;;;;4.40;2.85;;;13.20;59.30;;;;;;4979258;28;20209;-45
2022/07/10 10:04:25;;;;;;;4.35;2.60;;;13.20;59.30;;;;;;4984645;28;20672;-45
2022/07/10 10:07:00;;;;;;;4.78;2.78;;;13.20;59.30;;;;;;4994882;28;20272;-47
2022/07/10 10:09:36;;;;;;;5.82;2.72;;;13.20;59.30;;;;;;4994847;28;20197;-45
2022/07/10 10:12:15;;;;;;;3.92;2.88;;;13.20;59.40;;;;;;4977856;28;20230;-45
2022/07/10 10:14:48;;;;;;;4.40;2.85;;;13.10;59.40;;;;;;4987528;28;20838;-45
2022/07/10 10:17:20;;;;;;;4.05;2.97;;;13.10;59.40;;;;;;4981866;28;20662;-45
2022/07/10 10:22:39;;;;;;;4.75;2.92;;;13.10;59.40;;;;;;4955207;28;20274;-47
2022/07/10 10:25:10;;;;;;;5.32;2.78;;;13.10;60.00;;;;;;4975443;28;20593;-46
2022/07/10 10:27:41;;;;;;;3.72;2.65;;;13.10;59.30;;;;;;4974182;28;20202;-46
2022/07/10 10:30:14;;;;;;;5.85;2.95;;;13.10;59.30;;;;;;4986479;28;20225;-47
2022/07/10 10:32:45;;;;;;;3.70;2.63;;;13.10;59.30;;;;;;4994443;28;20581;-45
2022/07/10 10:35:46;;;;;;;3.08;2.33;;;13.10;59.20;;;;;;4982911;28;20230;-44
2022/07/10 10:38:17;;;;;;;4.93;3.10;;;13.00;59.20;;;;;;4973865;28;20198;-44
2022/07/10 10:40:48;;;;;;;4.45;2.60;;;13.00;59.20;;;;;;4974147;28;20206;-45
2022/07/10 10:43:22;;;;;;;3.42;2.70;;;13.00;59.20;;;;;;4966251;28;20223;-45
2022/07/10 10:45:55;;;;;;;4.22;2.95;;;13.00;59.20;;;;;;4970152;28;20576;-45
2022/07/10 10:48:26;;;;;;;4.15;2.80;;;13.00;59.30;;;;;;4968173;28;20214;-46
2022/07/10 10:50:57;;;;;;;4.82;3.08;;;13.00;59.30;;;;;;4993864;28;20208;-45
2022/07/10 10:53:28;;;;;;;5.57;3.40;;;12.90;59.30;;;;;;4993177;28;20767;-47
2022/07/10 10:56:26;;;;;;;4.72;2.85;;;12.90;59.20;;;;;;4994103;28;20229;-45
2022/07/10 10:58:57;;;;;;;5.40;2.95;;;12.90;59.20;;;;;;4992891;28;20236;-46
2022/07/10 11:01:33;;;;;;;4.03;3.00;;;12.90;59.20;;;;;;4993490;28;20247;-47
2022/07/10 11:04:20;;;;;;;3.63;2.63;;;12.90;59.20;;;;;;4992346;28;20693;-46
2022/07/10 11:06:52;;;;;;;5.22;3.10;;;12.90;59.10;;;;;;4993121;28;20200;-45
2022/07/10 11:09:28;;;;;;;4.72;3.20;;;12.90;59.10;;;;;;4993581;28;20201;-47
2022/07/10 11:12:06;;;;;;;7.00;3.20;;;12.90;59.10;;;;;;4993495;28;20204;-45
2022/07/10 11:14:39;;;;;;;4.47;2.67;;;12.80;59.00;;;;;;4992852;28;20267;-47
2022/07/10 11:17:12;;;;;;;6.22;3.28;;;12.90;59.10;;;;;;4983750;28;20202;-46
2022/07/10 11:22:51;;;;;;;3.60;2.65;;;12.80;59.10;;;;;;5099275;23;20224;-53
2022/07/10 11:26:00;;;;;;;5.43;2.78;;;12.80;59.20;;;;;;5016584;28;20618;-57
2022/07/10 11:28:46;;;;;;;7.35;3.20;;;12.80;59.10;;;;;;5009310;28;20513;-56
2022/07/10 11:31:21;;;;;;;6.38;2.97;;;12.70;59.00;;;;;;4992123;28;20292;-59
2022/07/10 11:34:01;;;;;;;4.43;2.83;;;12.70;59.60;;;;;;4993404;28;20563;-59
2022/07/10 11:36:37;;;;;;;4.80;2.97;;;12.70;59.00;;;;;;5011600;28;20578;-59
2022/07/10 11:39:13;;;;;;;4.30;2.92;;;12.70;59.00;;;;;;5012128;28;20599;-57
2022/07/10 11:41:52;;;;;;;4.35;2.65;;;12.70;59.00;;;;;;5011483;28;20778;-59
2022/07/10 11:44:27;;;;;;;5.43;3.53;;;12.70;59.00;;;;;;5011847;28;20551;-59
2022/07/10 11:47:03;;;;;;;6.13;3.05;;;12.70;59.00;;;;;;5012143;28;20219;-57
2022/07/10 11:49:53;;;;;;;5.97;3.63;;;12.60;58.90;;;;;;5011823;28;20653;-57
2022/07/10 11:52:28;;;;;;;6.57;3.47;;;12.70;59.00;;;;;;5011824;28;20295;-56
2022/07/10 11:55:20;;;;;;;5.22;3.15;;;12.60;59.00;;;;;;5011563;28;20232;-57
2022/07/10 11:58:09;;;;;;;6.57;3.47;;;12.60;59.00;;;;;;5012321;28;20204;-54
2022/07/10 12:01:14;;;;;;;5.55;3.20;;;12.60;58.90;;;;;;5011957;28;20216;-55
2022/07/10 12:04:05;;;;;;;5.15;3.17;;;12.60;58.90;;;;;;5011688;28;20212;-60
2022/07/10 12:07:05;;;;;;;5.65;3.53;;;12.60;58.90;;;;;;5012189;28;20305;-58
2022/07/10 12:09:53;;;;;;;3.95;2.78;;;12.60;58.90;;;;;;5012349;28;20221;-59
2022/07/10 12:13:02;;;;;;;6.53;3.22;;;12.60;58.90;;;;;;5012035;28;20221;-59
2022/07/10 12:15:58;;;;;;;5.68;3.30;;;12.50;58.90;;;;;;5010782;28;20591;-57
2022/07/10 12:18:32;;;;;;;6.45;3.58;;;12.50;58.90;;;;;;5011252;28;20212;-58
2022/07/10 12:21:04;;;;;;;4.82;3.33;;;12.50;58.90;;;;;;5012205;28;20232;-58
2022/07/10 12:23:41;;;;;;;4.22;3.00;;;12.50;58.90;;;;;;5013405;28;20220;-59
2022/07/10 12:26:15;;;;;;;7.25;3.30;;;12.50;58.90;;;;;;5013970;28;20200;-56
2022/07/10 12:28:56;;;;;;;5.13;3.40;;;12.50;59.00;;;;;;5013310;28;20200;-58
2022/07/10 12:31:29;;;;;;;5.57;3.78;;;12.50;59.00;;;;;;5012068;28;20755;-56
2022/07/10 12:34:01;;;;;;;6.78;4.00;;;12.40;58.90;;;;;;5010408;28;21090;-55
2022/07/10 12:36:46;;;;;;;6.63;3.50;;;12.40;58.90;;;;;;5010824;28;20224;-60
2022/07/10 12:39:19;;;;;;;6.00;3.33;;;12.40;58.90;;;;;;5010543;28;20193;-60
2022/07/10 12:42:00;;;;;;;5.57;3.70;;;12.40;58.90;;;;;;5010963;28;20200;-60
2022/07/10 12:44:41;;;;;;;7.13;3.78;;;12.40;58.90;;;;;;5011328;28;20197;-59
2022/07/10 12:47:13;;;;;;;6.05;4.00;;;12.40;58.90;;;;;;5010800;28;20656;-55
2022/07/10 12:49:54;;;;;;;7.95;3.95;;;12.40;58.90;;;;;;5009905;28;20193;-58
2022/07/10 12:52:27;;;;;;;5.20;3.70;;;12.40;58.90;;;;;;5010005;28;20719;-59
2022/07/10 12:55:13;;;;;;;4.65;3.58;;;12.40;58.90;;;;;;5010069;28;20212;-59
2022/07/10 12:57:55;;;;;;;5.68;3.78;;;12.30;58.90;;;;;;5010333;28;20431;-59
2022/07/10 13:00:27;;;;;;;6.82;3.90;;;12.40;58.90;;;;;;5010324;28;20204;-59
2022/07/10 13:03:03;;;;;;;7.13;4.32;;;12.30;58.90;;;;;;5010238;28;20232;-57
2022/07/10 13:05:35;;;;;;;5.32;3.67;;;12.30;58.90;;;;;;5009483;28;20764;-59
2022/07/10 13:08:15;;;;;;;5.03;3.85;;;12.30;58.90;;;;;;5009957;28;20201;-59
2022/07/10 13:10:50;;;;;;;6.03;3.60;;;12.30;58.90;;;;;;5010104;28;20235;-59
2022/07/10 13:13:21;;;;;;;7.13;4.43;;;12.30;58.90;;;;;;5010386;28;20227;-55
2022/07/10 13:15:53;;;;;;;5.22;3.70;;;12.20;58.80;;;;;;5010204;28;20228;-57
2022/07/10 13:21:03;;;;;;;5.68;4.00;;;12.30;58.90;;;;;;4988650;28;20268;-44
2022/07/10 13:23:34;;;;;;;5.80;3.88;;;12.20;58.80;;;;;;4974476;28;20706;-45
2022/07/10 13:26:07;;;;;;;6.57;4.22;;;12.20;58.80;;;;;;4951541;28;20203;-45
2022/07/10 13:28:38;;;;;;;7.95;4.05;;;12.30;58.90;;;;;;4954908;28;20202;-47
2022/07/10 13:31:09;;;;;;;5.43;3.85;;;12.30;58.90;;;;;;4955853;28;20671;-46
2022/07/10 13:33:40;;;;;;;7.22;4.18;;;12.20;58.80;;;;;;4955358;28;20214;-46